Time;durP1;ratioP1;P1;durP2;ratioP2;P2;SDS_P1;SDS_P2;PMS_P1;PMS_P2;Temp;Humidity;BMP_temperature;BMP_pressure;BME280_temperature;BME280_humidity;BME280_pressure;Samples;Min_cycle;Max_cycle;Signal;HPM_P1;HPM_P2
2023/05/16 00:00:08;;;;;;;16.95;3.72;;;9.50;99.90;;;;;;5093178;28;20036;-57
2023/05/16 00:02:38;;;;;;;17.27;2.70;;;9.50;99.90;;;;;;5094199;28;20086;-58
2023/05/16 00:05:06;;;;;;;16.50;2.88;;;9.50;99.90;;;;;;5094018;28;20513;-58
2023/05/16 00:07:33;;;;;;;23.70;3.72;;;9.50;99.90;;;;;;5094225;28;20044;-58
2023/05/16 00:09:59;;;;;;;17.83;2.47;;;9.50;99.90;;;;;;5094201;28;20060;-58
2023/05/16 00:12:24;;;;;;;16.45;2.70;;;9.60;99.90;;;;;;5094366;28;20125;-58
2023/05/16 00:14:51;;;;;;;14.50;2.42;;;9.50;99.90;;;;;;5094072;28;20040;-58
2023/05/16 00:17:19;;;;;;;15.05;2.80;;;9.50;99.90;;;;;;5094196;28;20040;-58
2023/05/16 00:19:46;;;;;;;13.25;2.40;;;9.50;99.90;;;;;;5094122;28;20147;-58
2023/05/16 00:22:12;;;;;;;13.15;2.30;;;9.50;99.90;;;;;;5093871;28;20089;-58
2023/05/16 00:24:38;;;;;;;16.83;2.53;;;9.50;99.90;;;;;;5093713;28;20040;-58
2023/05/16 00:27:04;;;;;;;18.85;3.13;;;9.50;99.90;;;;;;5093772;28;20421;-58
2023/05/16 00:29:33;;;;;;;17.67;2.28;;;9.50;99.90;;;;;;5093990;28;20039;-58
2023/05/16 00:31:59;;;;;;;11.75;2.10;;;9.50;99.90;;;;;;5093711;28;20054;-58
2023/05/16 00:34:25;;;;;;;13.65;2.15;;;9.40;99.90;;;;;;5093336;28;20470;-58
2023/05/16 00:36:51;;;;;;;14.50;3.53;;;9.40;99.90;;;;;;5092242;28;20036;-58
2023/05/16 00:39:17;;;;;;;13.25;3.00;;;9.40;99.90;;;;;;5085182;28;20112;-58
2023/05/16 00:41:43;;;;;;;17.27;2.47;;;9.40;99.90;;;;;;5073327;28;20546;-58
2023/05/16 00:44:08;;;;;;;17.30;4.35;;;9.30;99.90;;;;;;5076778;28;20084;-58
2023/05/16 00:46:34;;;;;;;30.90;3.97;;;9.30;99.90;;;;;;5086539;28;20474;-58
2023/05/16 00:49:00;;;;;;;14.07;3.08;;;9.20;99.90;;;;;;5080930;28;20123;-58
2023/05/16 00:51:29;;;;;;;15.57;3.10;;;9.20;99.90;;;;;;5091226;28;20119;-58
2023/05/16 00:53:56;;;;;;;15.35;3.15;;;9.20;99.90;;;;;;5092243;28;20040;-58
2023/05/16 00:56:21;;;;;;;12.02;3.22;;;9.30;99.90;;;;;;5090786;28;20036;-58
2023/05/16 00:58:48;;;;;;;14.52;2.47;;;9.20;99.90;;;;;;5079853;28;20044;-58
2023/05/16 01:01:15;;;;;;;17.50;3.22;;;9.30;99.90;;;;;;5093068;28;20052;-58
2023/05/16 01:03:41;;;;;;;12.38;2.78;;;9.20;99.90;;;;;;5093259;28;20054;-58
2023/05/16 01:06:07;;;;;;;17.98;2.85;;;9.10;99.90;;;;;;5092982;28;20044;-58
2023/05/16 01:08:33;;;;;;;14.82;2.63;;;9.10;99.90;;;;;;5092727;28;20043;-58
2023/05/16 01:11:17;;;;;;;19.88;3.30;;;9.00;99.90;;;;;;5093075;28;20055;-58
2023/05/16 01:14:04;;;;;;;12.93;2.30;;;9.00;99.90;;;;;;5087761;28;20033;-58
2023/05/16 01:16:39;;;;;;;9.85;2.47;;;9.00;99.90;;;;;;5086373;28;20124;-58
2023/05/16 01:19:32;;;;;;;15.15;2.50;;;9.00;99.90;;;;;;5092999;28;20032;-58
2023/05/16 01:22:51;;;;;;;14.02;2.55;;;9.00;99.90;;;;;;5092853;28;20040;-58
2023/05/16 01:25:39;;;;;;;14.50;2.65;;;9.00;99.90;;;;;;5070468;28;20048;-58
2023/05/16 01:28:06;;;;;;;17.50;2.85;;;8.90;99.90;;;;;;5070337;28;20138;-58
2023/05/16 01:30:36;;;;;;;13.55;2.65;;;9.00;99.90;;;;;;5070187;28;20233;-58
2023/05/16 01:33:02;;;;;;;20.50;3.55;;;8.90;99.90;;;;;;5070268;28;20037;-58
2023/05/16 01:35:28;;;;;;;17.70;2.97;;;9.00;99.90;;;;;;5070159;28;20136;-58
2023/05/16 01:38:16;;;;;;;16.50;1.92;;;9.00;99.90;;;;;;5070106;28;20036;-58
2023/05/16 01:40:52;;;;;;;15.35;3.15;;;9.10;99.90;;;;;;5053387;28;20044;-58
2023/05/16 01:43:26;;;;;;;20.67;2.85;;;9.10;99.90;;;;;;5070030;28;20116;-58
2023/05/16 01:45:58;;;;;;;15.35;3.53;;;9.10;99.90;;;;;;5069953;28;20044;-57
2023/05/16 01:48:33;;;;;;;12.57;2.58;;;9.10;99.90;;;;;;5070061;28;20622;-58
2023/05/16 01:51:00;;;;;;;10.70;2.22;;;9.10;99.90;;;;;;5069902;28;20037;-58
2023/05/16 01:53:31;;;;;;;17.55;3.05;;;9.20;99.90;;;;;;5070300;28;20072;-58
2023/05/16 01:56:00;;;;;;;14.93;3.17;;;9.10;99.90;;;;;;5072331;28;20053;-58
2023/05/16 01:58:29;;;;;;;17.60;3.13;;;9.10;99.90;;;;;;5091547;28;20048;-58
2023/05/16 02:00:59;;;;;;;;;;;9.10;99.90;;;;;;5092797;28;20497;-58
2023/05/16 02:03:24;;;;;;;19.40;3.00;;;9.00;99.90;;;;;;5092663;28;19920;-58
2023/05/16 02:05:51;;;;;;;12.95;2.58;;;9.00;99.90;;;;;;5092640;28;20067;-58
2023/05/16 02:08:16;;;;;;;11.23;2.97;;;9.10;99.90;;;;;;5092390;28;20076;-58
2023/05/16 02:10:42;;;;;;;16.30;3.45;;;8.90;99.90;;;;;;5092675;28;20103;-58
2023/05/16 02:13:08;;;;;;;12.30;2.78;;;8.90;99.90;;;;;;5092114;28;20036;-58
2023/05/16 02:15:34;;;;;;;17.90;2.85;;;9.00;99.90;;;;;;5092191;28;20040;-58
2023/05/16 02:17:59;;;;;;;13.57;2.42;;;8.90;99.90;;;;;;5092013;28;20063;-58
2023/05/16 02:20:25;;;;;;;17.55;3.28;;;9.00;99.90;;;;;;5092335;28;20036;-58
2023/05/16 02:22:50;;;;;;;13.52;2.78;;;9.00;99.90;;;;;;5092521;28;20040;-58
2023/05/16 02:25:16;;;;;;;14.90;2.42;;;9.00;99.90;;;;;;5095825;28;20123;-58
2023/05/16 02:27:42;;;;;;;18.83;3.10;;;9.10;99.90;;;;;;5096046;28;20398;-58
2023/05/16 02:30:10;;;;;;;12.30;2.17;;;9.10;99.90;;;;;;5096122;28;20028;-58
2023/05/16 02:32:37;;;;;;;12.77;2.72;;;9.20;99.90;;;;;;5096027;28;20032;-58
2023/05/16 02:35:03;;;;;;;13.75;2.83;;;9.20;99.90;;;;;;5096056;28;20040;-57
2023/05/16 02:37:29;;;;;;;11.90;3.00;;;9.20;99.90;;;;;;5095741;28;20036;-58
2023/05/16 02:39:54;;;;;;;18.63;2.85;;;9.20;99.90;;;;;;5096193;28;20100;-58
2023/05/16 02:42:20;;;;;;;15.30;2.40;;;9.10;99.90;;;;;;5095852;28;20039;-58
2023/05/16 02:44:45;;;;;;;15.80;2.70;;;9.20;99.90;;;;;;5095895;28;20135;-58
2023/05/16 02:47:11;;;;;;;16.77;2.40;;;9.10;99.90;;;;;;5095495;28;20594;-57
2023/05/16 02:49:37;;;;;;;15.07;2.20;;;9.00;99.90;;;;;;5080927;28;20059;-58
2023/05/16 02:52:03;;;;;;;12.35;2.00;;;9.10;99.90;;;;;;5095374;28;20043;-58
2023/05/16 02:54:28;;;;;;;15.07;3.03;;;9.10;99.90;;;;;;5095446;28;20047;-57
2023/05/16 02:56:54;;;;;;;13.65;2.55;;;9.00;99.90;;;;;;5095489;28;20802;-57
2023/05/16 02:59:20;;;;;;;14.30;2.25;;;9.10;99.90;;;;;;5095096;28;20047;-57
2023/05/16 03:01:45;;;;;;;11.77;2.20;;;9.00;99.90;;;;;;5095091;28;20040;-57
2023/05/16 03:04:11;;;;;;;20.05;3.35;;;9.10;99.90;;;;;;5094949;28;20036;-57
2023/05/16 03:06:36;;;;;;;15.13;2.47;;;9.00;99.90;;;;;;5093706;28;20036;-58
2023/05/16 03:09:02;;;;;;;10.40;2.28;;;9.10;99.90;;;;;;5095389;28;20036;-57
2023/05/16 03:11:28;;;;;;;15.32;2.67;;;9.10;99.90;;;;;;5094857;28;20438;-57
2023/05/16 03:13:53;;;;;;;15.02;2.15;;;9.10;99.90;;;;;;5095205;28;20040;-58
2023/05/16 03:16:19;;;;;;;10.68;2.25;;;9.00;99.90;;;;;;5094818;28;20043;-57
2023/05/16 03:18:45;;;;;;;15.50;2.67;;;9.00;99.90;;;;;;5094922;28;20119;-58
2023/05/16 03:21:10;;;;;;;14.80;3.10;;;9.00;99.90;;;;;;5095046;28;20054;-57
2023/05/16 03:23:36;;;;;;;13.48;2.10;;;9.00;99.90;;;;;;5095154;28;20062;-58
2023/05/16 03:26:01;;;;;;;17.85;2.80;;;8.90;99.90;;;;;;5094817;28;20097;-57
2023/05/16 03:28:27;;;;;;;13.60;3.33;;;8.90;99.90;;;;;;5094499;28;20389;-57
2023/05/16 03:30:53;;;;;;;13.95;2.28;;;8.90;99.90;;;;;;5094811;28;20040;-58
2023/05/16 03:33:19;;;;;;;10.10;2.15;;;9.00;99.90;;;;;;5094953;28;20032;-57
2023/05/16 03:35:45;;;;;;;12.57;2.67;;;8.90;99.90;;;;;;5093896;28;20143;-58
2023/05/16 03:38:11;;;;;;;12.77;2.53;;;8.90;99.90;;;;;;5094524;28;20120;-58
2023/05/16 03:40:36;;;;;;;14.35;2.20;;;8.90;99.90;;;;;;5094582;28;20123;-58
2023/05/16 03:43:02;;;;;;;16.15;2.95;;;8.80;99.90;;;;;;5094581;28;20470;-57
2023/05/16 03:45:29;;;;;;;14.15;2.30;;;8.80;99.90;;;;;;5094346;28;20067;-58
2023/05/16 03:47:55;;;;;;;12.43;3.53;;;8.80;99.90;;;;;;5088775;28;20104;-58
2023/05/16 03:50:21;;;;;;;9.40;2.15;;;8.80;99.90;;;;;;5085791;28;20120;-57
2023/05/16 03:52:47;;;;;;;11.38;2.15;;;8.80;99.90;;;;;;5093977;28;20115;-57
2023/05/16 03:55:13;;;;;;;17.52;2.60;;;8.80;99.90;;;;;;5094354;28;20028;-58
2023/05/16 03:57:41;;;;;;;13.10;1.98;;;8.80;99.90;;;;;;5094175;28;20051;-57
2023/05/16 04:00:07;;;;;;;11.85;2.50;;;8.90;99.90;;;;;;5094186;28;20415;-57
2023/05/16 04:02:33;;;;;;;10.73;2.25;;;8.90;99.90;;;;;;5094259;28;20102;-57
2023/05/16 04:04:58;;;;;;;12.73;2.50;;;8.90;99.90;;;;;;5094198;28;20040;-57
2023/05/16 04:07:24;;;;;;;16.80;2.30;;;8.80;99.90;;;;;;5094031;28;20052;-58
2023/05/16 04:09:51;;;;;;;11.85;2.85;;;8.90;99.90;;;;;;5093891;28;20028;-57
2023/05/16 04:12:16;;;;;;;14.25;2.80;;;8.90;99.90;;;;;;5093825;28;20462;-58
2023/05/16 04:14:42;;;;;;;14.05;2.25;;;8.90;99.90;;;;;;5094024;28;20043;-57
2023/05/16 04:17:08;;;;;;;9.43;1.95;;;8.90;99.90;;;;;;5093638;28;20486;-57
2023/05/16 04:19:33;;;;;;;10.27;2.50;;;8.90;99.90;;;;;;5093991;28;20050;-58
2023/05/16 04:21:59;;;;;;;12.52;2.53;;;8.80;99.90;;;;;;5093816;28;20470;-57
2023/05/16 04:24:25;;;;;;;14.10;2.25;;;9.00;99.90;;;;;;5093442;28;20072;-57
2023/05/16 04:26:51;;;;;;;17.40;2.47;;;8.90;99.90;;;;;;5093599;28;20032;-58
2023/05/16 04:29:16;;;;;;;13.98;3.80;;;8.90;99.90;;;;;;5093917;28;20086;-58
2023/05/16 04:31:42;;;;;;;12.02;2.00;;;8.80;99.90;;;;;;5093513;28;20506;-58
2023/05/16 04:34:08;;;;;;;14.18;2.08;;;8.70;99.90;;;;;;5093356;28;20051;-57
2023/05/16 04:36:34;;;;;;;11.25;2.53;;;8.70;99.90;;;;;;5093622;28;20040;-57
2023/05/16 04:39:00;;;;;;;10.07;2.53;;;8.60;99.90;;;;;;5093430;28;20040;-57
2023/05/16 04:41:26;;;;;;;11.90;2.50;;;8.70;99.90;;;;;;5093278;28;20036;-57
2023/05/16 04:43:52;;;;;;;9.85;2.30;;;8.70;99.90;;;;;;5093378;28;20040;-57
2023/05/16 04:46:19;;;;;;;19.48;2.53;;;8.70;99.90;;;;;;5092845;28;20083;-57
2023/05/16 04:48:45;;;;;;;9.10;1.90;;;8.80;99.90;;;;;;5080596;28;20061;-58
2023/05/16 04:51:11;;;;;;;7.15;2.33;;;8.70;99.90;;;;;;5090832;28;20386;-57
2023/05/16 04:53:36;;;;;;;14.07;2.22;;;8.70;99.90;;;;;;5093404;28;20040;-57
2023/05/16 04:56:04;;;;;;;10.70;2.13;;;8.80;99.90;;;;;;5092979;28;20043;-57
2023/05/16 04:58:30;;;;;;;9.00;1.90;;;8.80;99.90;;;;;;5093238;28;20036;-57
2023/05/16 05:00:56;;;;;;;11.38;2.20;;;8.80;99.90;;;;;;5093103;28;20474;-58
2023/05/16 05:03:22;;;;;;;11.35;2.53;;;8.80;99.90;;;;;;5091614;28;20047;-57
2023/05/16 05:05:48;;;;;;;12.90;3.58;;;8.90;99.90;;;;;;5092970;28;20032;-57
2023/05/16 05:08:14;;;;;;;12.38;2.10;;;8.80;99.90;;;;;;5074386;28;20097;-58
2023/05/16 05:10:39;;;;;;;15.43;2.10;;;8.80;99.90;;;;;;5093067;28;20036;-58
2023/05/16 05:13:05;;;;;;;8.90;1.83;;;8.90;99.90;;;;;;5092806;28;20036;-58
2023/05/16 05:15:31;;;;;;;10.45;2.13;;;8.90;99.90;;;;;;5092977;28;20036;-58
2023/05/16 05:17:56;;;;;;;8.95;1.88;;;9.00;99.90;;;;;;5092787;28;20678;-58
2023/05/16 05:20:22;;;;;;;7.65;1.80;;;9.10;99.90;;;;;;5093041;28;20046;-58
2023/05/16 05:22:48;;;;;;;15.60;1.95;;;9.20;99.90;;;;;;5092853;28;20074;-58
2023/05/16 05:25:14;;;;;;;16.48;2.53;;;9.30;99.90;;;;;;5091312;28;20498;-58
2023/05/16 05:27:39;;;;;;;7.63;2.35;;;9.40;99.90;;;;;;5092689;28;20044;-58
2023/05/16 05:30:06;;;;;;;8.30;1.77;;;9.50;99.90;;;;;;5092679;28;20036;-58
2023/05/16 05:32:31;;;;;;;12.43;2.40;;;9.60;99.90;;;;;;5124459;27;20512;-58
2023/05/16 05:34:57;;;;;;;11.93;2.58;;;9.70;99.90;;;;;;5092398;28;20040;-58
2023/05/16 05:37:23;;;;;;;10.52;2.03;;;9.80;99.90;;;;;;5092444;28;20087;-58
2023/05/16 05:39:48;;;;;;;10.02;2.13;;;9.90;99.90;;;;;;5092312;28;20032;-57
2023/05/16 05:42:14;;;;;;;10.20;2.08;;;10.00;99.90;;;;;;5090566;28;20036;-58
2023/05/16 05:44:40;;;;;;;11.88;2.33;;;10.10;99.90;;;;;;5081816;28;20047;-58
2023/05/16 05:47:06;;;;;;;11.63;2.03;;;10.20;99.90;;;;;;5071887;28;20530;-57
2023/05/16 05:49:32;;;;;;;5.78;1.50;;;10.30;99.90;;;;;;5076491;28;20048;-58
2023/05/16 05:51:58;;;;;;;8.63;1.50;;;10.60;99.90;;;;;;5084326;28;20039;-57
2023/05/16 05:54:24;;;;;;;12.23;1.67;;;10.70;99.90;;;;;;5074416;28;20101;-58
2023/05/16 05:56:50;;;;;;;13.88;2.00;;;11.00;99.90;;;;;;5078564;28;20055;-57
2023/05/16 05:59:16;;;;;;;10.02;1.92;;;11.20;99.90;;;;;;5074666;28;20037;-57
2023/05/16 06:01:43;;;;;;;11.68;2.05;;;11.10;99.90;;;;;;5089870;28;20879;-57
2023/05/16 06:04:09;;;;;;;16.00;3.28;;;11.30;99.90;;;;;;5076209;28;20769;-58
2023/05/16 06:06:36;;;;;;;11.55;1.52;;;11.50;99.90;;;;;;5076520;28;20036;-58
2023/05/16 06:09:02;;;;;;;10.43;1.95;;;11.40;99.90;;;;;;5075702;28;20540;-58
2023/05/16 06:11:27;;;;;;;8.70;1.88;;;11.50;99.90;;;;;;5074249;28;20032;-58
2023/05/16 06:13:53;;;;;;;15.02;2.00;;;11.60;99.90;;;;;;5075690;28;20036;-58
2023/05/16 06:16:22;;;;;;;11.13;2.10;;;11.70;99.90;;;;;;5075641;28;20028;-57
2023/05/16 06:18:48;;;;;;;11.35;1.85;;;11.90;99.90;;;;;;5075599;28;20036;-57
2023/05/16 06:21:14;;;;;;;6.82;1.65;;;12.00;99.90;;;;;;5075885;28;20029;-58
2023/05/16 06:23:40;;;;;;;11.68;2.15;;;12.10;99.90;;;;;;5075766;28;20034;-58
2023/05/16 06:26:05;;;;;;;6.60;1.48;;;12.20;99.90;;;;;;5075523;28;20064;-58
2023/05/16 06:28:31;;;;;;;6.10;1.25;;;12.00;99.90;;;;;;5074511;28;20086;-57
2023/05/16 06:30:56;;;;;;;6.90;1.17;;;11.90;99.90;;;;;;5075450;28;20032;-58
2023/05/16 06:33:22;;;;;;;3.53;1.27;;;11.90;99.90;;;;;;5084259;28;20067;-58
2023/05/16 06:35:48;;;;;;;11.57;2.05;;;12.00;99.90;;;;;;5095982;28;20107;-58
2023/05/16 06:38:14;;;;;;;11.23;1.42;;;12.00;99.90;;;;;;5095884;28;20366;-58
2023/05/16 06:40:40;;;;;;;8.15;1.20;;;12.20;99.90;;;;;;5095646;28;20086;-58
2023/05/16 06:43:06;;;;;;;8.02;1.15;;;12.30;99.90;;;;;;5095728;28;20397;-58
2023/05/16 06:45:32;;;;;;;10.68;1.80;;;12.30;99.90;;;;;;5095736;28;20036;-58
2023/05/16 06:47:57;;;;;;;12.95;1.90;;;12.40;99.90;;;;;;5089808;28;20033;-58
2023/05/16 06:50:23;;;;;;;7.05;1.27;;;12.50;99.90;;;;;;5087209;28;20075;-58
2023/05/16 06:52:48;;;;;;;10.27;2.00;;;12.50;99.90;;;;;;5095799;28;20064;-58
2023/05/16 06:55:14;;;;;;;7.45;1.77;;;12.70;99.90;;;;;;5095548;28;20116;-58
2023/05/16 06:57:40;;;;;;;8.77;1.30;;;12.80;99.90;;;;;;5095365;28;20064;-58
2023/05/16 07:00:07;;;;;;;7.50;1.13;;;12.60;99.90;;;;;;5095481;28;20089;-58
2023/05/16 07:02:32;;;;;;;6.35;1.10;;;12.90;99.90;;;;;;5095435;28;20040;-58
2023/05/16 07:04:58;;;;;;;6.35;1.33;;;13.10;99.90;;;;;;5095371;28;20042;-58
2023/05/16 07:07:24;;;;;;;6.82;1.35;;;13.20;99.90;;;;;;5094937;28;20039;-58
2023/05/16 07:09:49;;;;;;;12.20;1.83;;;13.30;99.90;;;;;;5095098;28;20038;-58
2023/05/16 07:12:15;;;;;;;7.63;2.03;;;13.70;99.90;;;;;;5093943;28;20028;-58
2023/05/16 07:14:42;;;;;;;8.45;2.20;;;13.70;99.90;;;;;;5095407;28;20044;-58
2023/05/16 07:17:08;;;;;;;10.43;1.55;;;13.70;99.90;;;;;;5095199;28;20127;-58
2023/05/16 07:19:34;;;;;;;9.23;1.70;;;13.90;99.90;;;;;;5093894;28;20105;-58
2023/05/16 07:22:00;;;;;;;8.32;1.55;;;14.10;99.90;;;;;;5094910;28;20402;-58
2023/05/16 07:24:25;;;;;;;8.07;2.08;;;14.10;99.90;;;;;;5095220;28;20043;-58
2023/05/16 07:26:51;;;;;;;13.77;1.40;;;14.20;99.90;;;;;;5092123;28;20035;-59
2023/05/16 07:29:17;;;;;;;10.43;1.73;;;14.10;99.90;;;;;;5095033;28;20446;-58
2023/05/16 07:31:42;;;;;;;10.57;2.08;;;14.20;99.90;;;;;;5094896;28;20059;-58
2023/05/16 07:34:09;;;;;;;11.32;1.90;;;14.50;99.90;;;;;;5094848;28;20144;-58
2023/05/16 07:36:35;;;;;;;6.63;1.70;;;14.50;99.90;;;;;;5094686;28;20074;-58
2023/05/16 07:39:01;;;;;;;10.55;2.05;;;14.30;99.90;;;;;;5095072;28;20044;-58
2023/05/16 07:41:28;;;;;;;11.85;2.50;;;14.30;99.90;;;;;;5094874;28;20110;-58
2023/05/16 07:43:54;;;;;;;6.95;2.20;;;14.60;99.90;;;;;;5086193;28;20044;-59
2023/05/16 07:46:19;;;;;;;8.75;1.83;;;14.60;99.90;;;;;;5075904;28;20039;-59
2023/05/16 07:48:45;;;;;;;6.97;2.08;;;14.80;99.90;;;;;;5074187;28;20071;-58
2023/05/16 07:51:11;;;;;;;9.95;1.70;;;14.80;99.90;;;;;;5086879;28;20039;-59
2023/05/16 07:53:36;;;;;;;10.43;1.77;;;14.60;99.90;;;;;;5084972;28;20359;-59
2023/05/16 07:56:02;;;;;;;10.02;2.13;;;14.60;99.90;;;;;;5075819;28;20040;-59
2023/05/16 07:58:28;;;;;;;12.32;2.45;;;14.60;99.90;;;;;;5079388;28;20123;-58
2023/05/16 08:00:54;;;;;;;9.02;1.77;;;14.00;99.90;;;;;;5075837;28;20131;-58
2023/05/16 08:03:20;;;;;;;12.43;1.90;;;13.70;99.90;;;;;;5077677;28;20111;-58
2023/05/16 08:05:47;;;;;;;9.52;2.03;;;13.60;99.90;;;;;;5081679;28;20445;-59
2023/05/16 08:08:13;;;;;;;8.20;1.70;;;14.00;99.90;;;;;;5077875;28;20398;-59
2023/05/16 08:10:39;;;;;;;11.07;2.03;;;14.50;99.90;;;;;;5080212;28;20032;-58
2023/05/16 08:13:04;;;;;;;8.98;2.30;;;14.60;99.90;;;;;;5074313;28;20044;-58
2023/05/16 08:15:30;;;;;;;7.20;1.42;;;14.80;99.90;;;;;;5081668;28;20043;-58
2023/05/16 08:17:57;;;;;;;9.98;1.83;;;14.60;99.90;;;;;;5074622;28;20044;-58
2023/05/16 08:20:23;;;;;;;6.88;1.80;;;13.90;99.90;;;;;;5073703;28;20052;-58
2023/05/16 08:22:49;;;;;;;10.15;1.73;;;13.30;99.90;;;;;;5073100;28;20048;-59
2023/05/16 08:25:15;;;;;;;7.47;1.50;;;13.30;99.90;;;;;;5073534;28;20033;-58
2023/05/16 08:27:41;;;;;;;6.20;1.48;;;13.50;99.90;;;;;;5073006;28;20044;-59
2023/05/16 08:30:08;;;;;;;5.82;1.45;;;13.70;99.90;;;;;;5073631;28;20043;-59
2023/05/16 08:32:33;;;;;;;6.35;1.48;;;14.00;99.90;;;;;;5073400;28;20136;-59
2023/05/16 08:34:59;;;;;;;11.40;1.90;;;14.20;99.90;;;;;;5073022;28;20143;-58
2023/05/16 08:37:25;;;;;;;9.77;2.05;;;14.30;99.90;;;;;;5073088;28;20112;-59
2023/05/16 08:39:50;;;;;;;9.38;1.63;;;14.60;99.90;;;;;;5091649;28;20479;-59
2023/05/16 08:42:16;;;;;;;9.35;3.38;;;15.00;99.90;;;;;;5093461;28;20466;-58
2023/05/16 08:44:42;;;;;;;7.28;1.95;;;14.80;99.90;;;;;;5092871;28;20043;-58
2023/05/16 08:47:16;;;;;;;15.63;1.77;;;14.40;99.90;;;;;;5092794;28;20044;-59
2023/05/16 08:49:46;;;;;;;7.28;1.92;;;13.90;99.90;;;;;;5078779;28;20056;-58
2023/05/16 08:52:13;;;;;;;15.25;1.90;;;13.80;99.90;;;;;;5093442;28;20040;-59
2023/05/16 08:54:39;;;;;;;6.97;1.27;;;14.30;99.90;;;;;;5092921;28;20032;-59
2023/05/16 08:57:06;;;;;;;10.82;2.33;;;14.20;99.90;;;;;;5093323;28;20032;-59
2023/05/16 08:59:33;;;;;;;9.38;1.42;;;14.40;99.90;;;;;;5093166;28;20402;-59
2023/05/16 09:01:59;;;;;;;12.55;1.67;;;14.90;99.90;;;;;;5093155;28;20043;-58
2023/05/16 09:04:26;;;;;;;10.38;1.80;;;15.20;99.90;;;;;;5093041;28;20036;-59
2023/05/16 09:06:53;;;;;;;7.60;2.03;;;14.80;99.90;;;;;;5093235;28;20077;-58
2023/05/16 09:09:18;;;;;;;8.80;1.52;;;14.40;99.90;;;;;;5092914;28;20044;-59
2023/05/16 09:11:44;;;;;;;7.68;1.40;;;14.50;99.90;;;;;;5092642;28;20051;-59
2023/05/16 09:14:10;;;;;;;6.93;1.52;;;14.80;99.90;;;;;;5092962;28;20093;-59
2023/05/16 09:16:35;;;;;;;10.40;1.90;;;14.60;99.90;;;;;;5092818;28;20036;-59
2023/05/16 09:19:01;;;;;;;7.60;1.90;;;14.70;99.90;;;;;;5093026;28;20044;-59
2023/05/16 09:21:32;;;;;;;11.45;1.70;;;14.90;99.90;;;;;;5092815;28;20036;-59
2023/05/16 09:24:08;;;;;;;9.05;1.40;;;14.90;99.90;;;;;;5093033;28;20101;-59
2023/05/16 09:26:36;;;;;;;7.70;1.58;;;15.20;99.90;;;;;;5092419;28;20044;-59
2023/05/16 09:29:12;;;;;;;10.23;1.85;;;15.20;99.90;;;;;;5092837;28;20039;-59
2023/05/16 09:31:37;;;;;;;8.20;1.85;;;15.30;99.90;;;;;;5092327;28;20032;-59
2023/05/16 09:34:07;;;;;;;7.60;1.42;;;15.00;99.90;;;;;;5090629;28;20374;-60
2023/05/16 09:36:33;;;;;;;11.85;1.60;;;14.80;99.90;;;;;;5092559;28;20047;-58
2023/05/16 09:39:00;;;;;;;13.38;1.45;;;14.90;99.90;;;;;;5092672;28;20039;-59
2023/05/16 09:41:25;;;;;;;8.20;1.40;;;14.70;99.90;;;;;;5092548;28;20044;-59
2023/05/16 09:43:51;;;;;;;11.52;2.13;;;15.10;99.90;;;;;;5092681;28;20036;-59
2023/05/16 09:46:18;;;;;;;12.82;1.83;;;15.60;99.90;;;;;;5092267;28;20036;-59
2023/05/16 09:48:45;;;;;;;12.32;1.95;;;15.90;99.90;;;;;;5080426;28;20056;-59
2023/05/16 09:51:12;;;;;;;10.02;2.25;;;16.30;99.90;;;;;;5089949;28;20032;-59
2023/05/16 09:53:38;;;;;;;7.63;1.40;;;15.90;99.90;;;;;;5091798;28;20040;-59
2023/05/16 09:56:06;;;;;;;11.23;1.80;;;16.00;99.90;;;;;;5092423;28;20036;-58
2023/05/16 09:58:34;;;;;;;11.23;2.50;;;15.50;99.90;;;;;;5092143;28;20117;-59
2023/05/16 10:01:01;;;;;;;9.80;1.77;;;15.00;99.90;;;;;;5092092;28;20036;-59
2023/05/16 10:03:27;;;;;;;10.35;2.45;;;15.30;99.90;;;;;;5091936;28;20498;-59
2023/05/16 10:05:54;;;;;;;12.95;2.05;;;15.90;99.90;;;;;;5092378;28;20093;-58
2023/05/16 10:08:26;;;;;;;6.47;2.22;;;15.90;99.90;;;;;;5091957;28;20036;-59
2023/05/16 10:10:53;;;;;;;9.05;2.45;;;15.80;99.90;;;;;;5091869;28;20032;-59
2023/05/16 10:13:21;;;;;;;11.13;2.35;;;16.00;99.90;;;;;;5092174;28;20036;-59
2023/05/16 10:15:48;;;;;;;5.93;1.80;;;15.90;99.90;;;;;;5090594;28;20119;-59
2023/05/16 10:18:17;;;;;;;7.10;2.35;;;15.50;99.90;;;;;;5091894;28;20561;-58
2023/05/16 10:20:44;;;;;;;9.82;1.98;;;15.00;99.90;;;;;;5091989;28;20075;-59
2023/05/16 10:23:20;;;;;;;7.40;2.00;;;15.00;99.90;;;;;;5092301;28;20048;-59
2023/05/16 10:25:48;;;;;;;6.43;1.90;;;15.40;99.90;;;;;;5091982;28;20089;-59
2023/05/16 10:28:15;;;;;;;6.38;1.50;;;15.90;99.90;;;;;;5091942;28;20039;-59
2023/05/16 10:30:43;;;;;;;10.65;1.63;;;15.60;99.90;;;;;;5091399;28;20119;-59
2023/05/16 10:33:15;;;;;;;9.65;1.40;;;15.70;99.90;;;;;;5091720;28;20106;-58
2023/05/16 10:35:41;;;;;;;6.25;1.77;;;16.00;99.90;;;;;;5090877;28;20036;-59
2023/05/16 10:38:09;;;;;;;6.75;1.60;;;16.20;99.90;;;;;;5091596;28;20039;-59
2023/05/16 10:40:36;;;;;;;12.32;2.00;;;16.20;99.90;;;;;;5091752;28;20040;-58
2023/05/16 10:43:04;;;;;;;10.52;1.73;;;15.90;99.90;;;;;;5091605;28;20032;-59
2023/05/16 10:45:30;;;;;;;5.05;1.17;;;16.30;99.90;;;;;;5093956;28;20132;-59
2023/05/16 10:47:57;;;;;;;7.45;2.13;;;16.30;99.90;;;;;;5088862;28;20090;-58
2023/05/16 10:50:37;;;;;;;9.25;1.60;;;16.30;99.90;;;;;;5087107;28;20063;-59
2023/05/16 10:53:15;;;;;;;5.15;1.13;;;16.20;99.90;;;;;;5095597;28;20036;-59
2023/05/16 10:56:10;;;;;;;6.55;1.30;;;16.40;99.90;;;;;;5095388;28;20035;-59
2023/05/16 10:58:39;;;;;;;6.70;1.48;;;16.50;99.90;;;;;;5082153;28;20550;-59
2023/05/16 11:01:23;;;;;;;9.20;2.40;;;16.60;99.90;;;;;;5094995;28;20040;-59
2023/05/16 11:06:34;;;;;;;8.82;1.70;;;16.50;99.90;;;;;;5095163;28;20074;-59
2023/05/16 11:09:05;;;;;;;8.05;1.77;;;16.70;99.90;;;;;;5095272;28;20493;-59
2023/05/16 11:11:50;;;;;;;9.27;1.77;;;16.50;99.90;;;;;;5113928;27;20093;-59
2023/05/16 11:14:27;;;;;;;5.93;1.55;;;16.50;99.90;;;;;;5094911;28;20105;-58
2023/05/16 11:17:12;;;;;;;6.57;1.88;;;16.70;99.90;;;;;;5081874;28;20036;-59
2023/05/16 11:19:56;;;;;;;4.20;1.27;;;16.80;99.90;;;;;;5094979;28;20078;-59
2023/05/16 11:22:23;;;;;;;10.02;1.60;;;16.90;99.90;;;;;;5095003;28;20040;-59
2023/05/16 11:25:02;;;;;;;7.78;1.77;;;16.90;99.90;;;;;;5094682;28;20076;-59
2023/05/16 11:27:35;;;;;;;6.03;1.65;;;16.50;99.90;;;;;;5094756;28;20138;-59
2023/05/16 11:30:03;;;;;;;7.20;2.13;;;16.20;99.90;;;;;;5094880;28;20063;-59
2023/05/16 11:32:29;;;;;;;8.48;2.13;;;15.90;99.90;;;;;;5094778;28;20497;-60
2023/05/16 11:34:56;;;;;;;10.27;2.17;;;15.60;99.90;;;;;;5094176;28;20036;-59
2023/05/16 11:37:22;;;;;;;9.23;2.38;;;15.50;99.90;;;;;;5094500;28;20044;-59
2023/05/16 11:39:48;;;;;;;10.50;1.90;;;15.30;99.90;;;;;;5094582;28;20131;-58
2023/05/16 11:42:14;;;;;;;15.95;2.65;;;15.00;99.90;;;;;;5127254;27;20047;-59
2023/05/16 11:44:40;;;;;;;9.10;2.00;;;15.20;99.90;;;;;;5094764;28;20040;-59
2023/05/16 11:47:06;;;;;;;10.70;2.15;;;15.70;99.90;;;;;;5094205;28;20373;-59
2023/05/16 11:49:32;;;;;;;11.80;2.88;;;16.00;99.90;;;;;;5079681;28;20130;-59
2023/05/16 11:51:58;;;;;;;7.05;1.77;;;15.70;99.90;;;;;;5094335;28;20085;-58
2023/05/16 11:54:25;;;;;;;9.25;1.85;;;16.20;99.90;;;;;;5094213;28;20036;-59
2023/05/16 11:56:51;;;;;;;7.50;1.92;;;16.70;99.90;;;;;;5093565;28;20059;-59
2023/05/16 11:59:17;;;;;;;8.85;2.28;;;16.20;99.90;;;;;;5093785;28;20110;-59
2023/05/16 12:01:43;;;;;;;11.77;2.45;;;16.00;99.90;;;;;;5094166;28;20044;-59
2023/05/16 12:04:11;;;;;;;13.00;3.35;;;16.20;99.90;;;;;;5094214;28;20371;-59
2023/05/16 12:06:37;;;;;;;7.32;2.17;;;16.30;99.90;;;;;;5093808;28;20059;-59
2023/05/16 12:09:10;;;;;;;6.55;1.90;;;15.80;99.90;;;;;;5094095;28;20102;-59
2023/05/16 12:11:37;;;;;;;8.80;2.20;;;15.70;99.90;;;;;;5093909;28;20043;-60
2023/05/16 12:14:04;;;;;;;11.65;2.85;;;16.00;99.90;;;;;;5093820;28;20051;-60
2023/05/16 12:16:31;;;;;;;8.90;2.75;;;16.00;99.90;;;;;;5092157;28;20044;-59
2023/05/16 12:18:57;;;;;;;6.05;1.80;;;16.00;99.90;;;;;;5093417;28;20067;-59
2023/05/16 12:21:23;;;;;;;11.70;2.20;;;16.10;99.90;;;;;;5092450;28;20131;-60
2023/05/16 12:23:52;;;;;;;6.88;2.47;;;16.20;99.90;;;;;;5093685;28;20114;-59
2023/05/16 12:26:25;;;;;;;;;;;15.90;99.90;;;;;;5094001;28;20478;-59
2023/05/16 12:28:56;;;;;;;8.85;2.20;;;15.90;99.90;;;;;;5093463;28;19920;-60
2023/05/16 12:31:23;;;;;;;7.88;2.10;;;15.90;99.90;;;;;;5093107;28;20040;-59
2023/05/16 12:33:52;;;;;;;10.98;2.42;;;16.20;99.90;;;;;;5093329;28;20040;-60
2023/05/16 12:36:18;;;;;;;4.72;1.92;;;16.20;99.90;;;;;;5093424;28;20043;-59
2023/05/16 12:38:46;;;;;;;9.88;3.17;;;15.90;99.90;;;;;;5093032;28;20043;-59
2023/05/16 12:41:17;;;;;;;7.10;2.28;;;15.90;99.90;;;;;;5093463;28;20074;-59
2023/05/16 12:43:43;;;;;;;9.93;2.42;;;15.70;99.90;;;;;;5091381;28;20117;-59
2023/05/16 12:46:13;;;;;;;6.90;2.20;;;15.50;99.90;;;;;;5078856;28;20039;-59
2023/05/16 12:48:40;;;;;;;7.80;2.70;;;15.00;99.90;;;;;;5081524;28;20091;-59